sensor_id;sensor_type;location;lat;lon;timestamp;P1;durP1;ratioP1;P2;durP2;ratioP2
40058;SDS011;25763;49.972;8.568;2023-07-16T00:02:23;179.85;;;170.77;;
40058;SDS011;25763;49.972;8.568;2023-07-16T00:04:49;180.60;;;171.40;;
40058;SDS011;25763;49.972;8.568;2023-07-16T00:07:14;170.73;;;162.10;;
40058;SDS011;25763;49.972;8.568;2023-07-16T00:09:39;165.85;;;157.43;;
40058;SDS011;25763;49.972;8.568;2023-07-16T00:12:05;148.05;;;140.55;;
40058;SDS011;25763;49.972;8.568;2023-07-16T00:14:31;139.13;;;132.02;;
40058;SDS011;25763;49.972;8.568;2023-07-16T00:16:57;137.32;;;130.23;;
40058;SDS011;25763;49.972;8.568;2023-07-16T00:19:22;132.85;;;126.00;;
40058;SDS011;25763;49.972;8.568;2023-07-16T00:21:48;135.55;;;128.60;;
40058;SDS011;25763;49.972;8.568;2023-07-16T00:24:13;129.60;;;122.97;;
40058;SDS011;25763;49.972;8.568;2023-07-16T00:26:38;127.53;;;119.80;;
40058;SDS011;25763;49.972;8.568;2023-07-16T00:29:04;124.10;;;117.63;;
40058;SDS011;25763;49.972;8.568;2023-07-16T00:31:29;129.40;;;122.60;;
40058;SDS011;25763;49.972;8.568;2023-07-16T00:33:55;125.88;;;119.25;;
40058;SDS011;25763;49.972;8.568;2023-07-16T00:36:20;119.63;;;113.38;;
40058;SDS011;25763;49.972;8.568;2023-07-16T00:38:46;123.93;;;117.43;;
40058;SDS011;25763;49.972;8.568;2023-07-16T00:41:12;128.52;;;121.90;;
40058;SDS011;25763;49.972;8.568;2023-07-16T00:43:38;126.38;;;119.85;;
40058;SDS011;25763;49.972;8.568;2023-07-16T00:46:03;137.35;;;130.23;;
40058;SDS011;25763;49.972;8.568;2023-07-16T00:48:29;151.35;;;143.43;;
40058;SDS011;25763;49.972;8.568;2023-07-16T00:50:54;138.80;;;131.63;;
40058;SDS011;25763;49.972;8.568;2023-07-16T00:53:21;140.07;;;132.88;;
40058;SDS011;25763;49.972;8.568;2023-07-16T00:55:46;135.25;;;128.23;;
40058;SDS011;25763;49.972;8.568;2023-07-16T00:58:12;134.65;;;127.65;;
40058;SDS011;25763;49.972;8.568;2023-07-16T01:00:38;140.90;;;133.65;;
40058;SDS011;25763;49.972;8.568;2023-07-16T01:03:11;125.28;;;118.82;;
40058;SDS011;25763;49.972;8.568;2023-07-16T01:10:46;114.22;;;108.43;;
40058;SDS011;25763;49.972;8.568;2023-07-16T01:13:14;123.70;;;117.38;;
40058;SDS011;25763;49.972;8.568;2023-07-16T01:15:40;119.78;;;113.65;;
40058;SDS011;25763;49.972;8.568;2023-07-16T01:18:05;107.82;;;102.28;;
40058;SDS011;25763;49.972;8.568;2023-07-16T01:20:30;108.18;;;102.70;;
40058;SDS011;25763;49.972;8.568;2023-07-16T01:23:08;109.40;;;103.88;;
40058;SDS011;25763;49.972;8.568;2023-07-16T01:31:03;99.78;;;94.70;;
40058;SDS011;25763;49.972;8.568;2023-07-16T01:33:29;100.53;;;95.40;;
40058;SDS011;25763;49.972;8.568;2023-07-16T01:35:54;100.00;;;94.95;;
40058;SDS011;25763;49.972;8.568;2023-07-16T01:38:22;94.72;;;89.93;;
40058;SDS011;25763;49.972;8.568;2023-07-16T01:40:48;102.65;;;97.43;;
40058;SDS011;25763;49.972;8.568;2023-07-16T01:43:13;100.25;;;95.10;;
40058;SDS011;25763;49.972;8.568;2023-07-16T01:45:39;102.70;;;97.50;;
40058;SDS011;25763;49.972;8.568;2023-07-16T01:50:51;117.60;;;111.68;;
40058;SDS011;25763;49.972;8.568;2023-07-16T01:53:16;114.35;;;108.53;;
40058;SDS011;25763;49.972;8.568;2023-07-16T01:55:41;120.15;;;114.05;;
40058;SDS011;25763;49.972;8.568;2023-07-16T01:58:07;111.32;;;105.68;;
40058;SDS011;25763;49.972;8.568;2023-07-16T02:00:33;100.30;;;95.22;;
40058;SDS011;25763;49.972;8.568;2023-07-16T02:02:58;105.95;;;100.55;;
40058;SDS011;25763;49.972;8.568;2023-07-16T02:05:24;98.35;;;93.35;;
40058;SDS011;25763;49.972;8.568;2023-07-16T02:07:50;111.28;;;105.65;;
40058;SDS011;25763;49.972;8.568;2023-07-16T02:10:16;97.93;;;92.97;;
40058;SDS011;25763;49.972;8.568;2023-07-16T02:12:41;109.93;;;104.40;;
40058;SDS011;25763;49.972;8.568;2023-07-16T02:15:06;110.95;;;105.40;;
40058;SDS011;25763;49.972;8.568;2023-07-16T02:17:32;107.70;;;102.28;;
40058;SDS011;25763;49.972;8.568;2023-07-16T02:19:57;94.90;;;90.10;;
40058;SDS011;25763;49.972;8.568;2023-07-16T02:22:22;109.03;;;103.55;;
40058;SDS011;25763;49.972;8.568;2023-07-16T02:24:48;98.47;;;93.50;;
40058;SDS011;25763;49.972;8.568;2023-07-16T02:27:13;103.45;;;98.18;;
40058;SDS011;25763;49.972;8.568;2023-07-16T02:29:38;114.75;;;108.90;;
40058;SDS011;25763;49.972;8.568;2023-07-16T02:32:04;105.65;;;100.32;;
40058;SDS011;25763;49.972;8.568;2023-07-16T02:34:29;101.82;;;96.68;;
40058;SDS011;25763;49.972;8.568;2023-07-16T02:36:55;102.72;;;97.53;;
40058;SDS011;25763;49.972;8.568;2023-07-16T02:39:20;95.78;;;90.93;;
40058;SDS011;25763;49.972;8.568;2023-07-16T02:41:45;107.28;;;101.88;;
40058;SDS011;25763;49.972;8.568;2023-07-16T02:44:11;104.95;;;99.43;;
40058;SDS011;25763;49.972;8.568;2023-07-16T02:46:36;108.57;;;103.10;;
40058;SDS011;25763;49.972;8.568;2023-07-16T02:49:02;112.88;;;107.18;;
40058;SDS011;25763;49.972;8.568;2023-07-16T02:51:28;112.45;;;105.28;;
40058;SDS011;25763;49.972;8.568;2023-07-16T02:53:53;103.88;;;98.30;;
40058;SDS011;25763;49.972;8.568;2023-07-16T02:56:18;102.75;;;97.53;;
40058;SDS011;25763;49.972;8.568;2023-07-16T02:58:44;107.72;;;102.35;;
40058;SDS011;25763;49.972;8.568;2023-07-16T03:01:09;96.93;;;91.97;;
40058;SDS011;25763;49.972;8.568;2023-07-16T03:03:35;102.90;;;97.63;;
40058;SDS011;25763;49.972;8.568;2023-07-16T03:06:00;93.55;;;88.88;;
40058;SDS011;25763;49.972;8.568;2023-07-16T03:08:25;89.88;;;85.38;;
40058;SDS011;25763;49.972;8.568;2023-07-16T03:10:55;80.05;;;76.00;;
40058;SDS011;25763;49.972;8.568;2023-07-16T03:13:21;85.85;;;81.55;;
40058;SDS011;25763;49.972;8.568;2023-07-16T03:15:47;93.70;;;88.93;;
40058;SDS011;25763;49.972;8.568;2023-07-16T03:18:12;85.47;;;81.18;;
40058;SDS011;25763;49.972;8.568;2023-07-16T03:20:37;82.05;;;77.97;;
40058;SDS011;25763;49.972;8.568;2023-07-16T03:23:03;86.95;;;82.55;;
40058;SDS011;25763;49.972;8.568;2023-07-16T03:25:28;92.40;;;87.78;;
40058;SDS011;25763;49.972;8.568;2023-07-16T03:27:53;82.35;;;77.82;;
40058;SDS011;25763;49.972;8.568;2023-07-16T03:30:19;83.30;;;78.43;;
40058;SDS011;25763;49.972;8.568;2023-07-16T03:32:44;88.47;;;84.07;;
40058;SDS011;25763;49.972;8.568;2023-07-16T03:35:09;99.18;;;94.15;;
40058;SDS011;25763;49.972;8.568;2023-07-16T03:37:35;98.45;;;93.57;;
40058;SDS011;25763;49.972;8.568;2023-07-16T03:40:13;72.40;;;68.80;;
40058;SDS011;25763;49.972;8.568;2023-07-16T03:42:40;85.00;;;80.75;;
40058;SDS011;25763;49.972;8.568;2023-07-16T03:45:06;85.05;;;80.70;;
40058;SDS011;25763;49.972;8.568;2023-07-16T03:47:32;75.97;;;72.15;;
40058;SDS011;25763;49.972;8.568;2023-07-16T03:49:57;78.68;;;74.75;;
40058;SDS011;25763;49.972;8.568;2023-07-16T03:52:22;74.35;;;70.60;;
40058;SDS011;25763;49.972;8.568;2023-07-16T03:54:49;77.60;;;73.75;;
40058;SDS011;25763;49.972;8.568;2023-07-16T03:57:15;73.60;;;69.95;;
40058;SDS011;25763;49.972;8.568;2023-07-16T03:59:40;69.53;;;66.07;;
40058;SDS011;25763;49.972;8.568;2023-07-16T04:02:05;65.03;;;61.67;;
40058;SDS011;25763;49.972;8.568;2023-07-16T04:04:30;70.18;;;66.65;;
40058;SDS011;25763;49.972;8.568;2023-07-16T04:06:56;65.30;;;62.00;;
40058;SDS011;25763;49.972;8.568;2023-07-16T04:09:21;65.28;;;62.00;;
40058;SDS011;25763;49.972;8.568;2023-07-16T04:11:47;63.75;;;60.55;;
40058;SDS011;25763;49.972;8.568;2023-07-16T04:14:12;62.75;;;59.53;;
40058;SDS011;25763;49.972;8.568;2023-07-16T04:16:38;71.32;;;67.75;;
40058;SDS011;25763;49.972;8.568;2023-07-16T04:19:03;58.80;;;55.85;;
40058;SDS011;25763;49.972;8.568;2023-07-16T04:21:30;68.22;;;64.82;;
40058;SDS011;25763;49.972;8.568;2023-07-16T04:23:55;67.63;;;64.28;;
40058;SDS011;25763;49.972;8.568;2023-07-16T04:26:20;65.57;;;62.22;;
40058;SDS011;25763;49.972;8.568;2023-07-16T04:28:46;65.50;;;62.20;;
40058;SDS011;25763;49.972;8.568;2023-07-16T04:31:11;57.22;;;54.33;;
40058;SDS011;25763;49.972;8.568;2023-07-16T04:33:36;52.30;;;49.65;;
40058;SDS011;25763;49.972;8.568;2023-07-16T04:36:02;53.78;;;51.03;;
40058;SDS011;25763;49.972;8.568;2023-07-16T04:38:27;56.42;;;53.58;;
40058;SDS011;25763;49.972;8.568;2023-07-16T04:40:53;46.42;;;44.05;;
40058;SDS011;25763;49.972;8.568;2023-07-16T04:43:18;48.65;;;46.15;;
40058;SDS011;25763;49.972;8.568;2023-07-16T04:45:44;51.13;;;48.53;;
40058;SDS011;25763;49.972;8.568;2023-07-16T04:48:11;44.47;;;41.75;;
40058;SDS011;25763;49.972;8.568;2023-07-16T04:50:38;40.13;;;38.08;;
40058;SDS011;25763;49.972;8.568;2023-07-16T04:53:04;40.17;;;38.08;;
40058;SDS011;25763;49.972;8.568;2023-07-16T04:55:29;35.90;;;34.03;;
40058;SDS011;25763;49.972;8.568;2023-07-16T04:57:59;35.33;;;33.53;;
40058;SDS011;25763;49.972;8.568;2023-07-16T05:00:24;40.22;;;38.13;;
40058;SDS011;25763;49.972;8.568;2023-07-16T05:02:50;33.70;;;31.95;;
40058;SDS011;25763;49.972;8.568;2023-07-16T05:05:15;37.72;;;35.78;;
40058;SDS011;25763;49.972;8.568;2023-07-16T05:07:40;31.67;;;30.02;;
40058;SDS011;25763;49.972;8.568;2023-07-16T05:10:06;31.10;;;29.48;;
40058;SDS011;25763;49.972;8.568;2023-07-16T05:12:32;31.95;;;30.27;;
40058;SDS011;25763;49.972;8.568;2023-07-16T05:14:57;32.28;;;30.58;;
40058;SDS011;25763;49.972;8.568;2023-07-16T05:17:22;31.08;;;29.40;;
40058;SDS011;25763;49.972;8.568;2023-07-16T05:19:48;33.13;;;31.33;;
40058;SDS011;25763;49.972;8.568;2023-07-16T05:22:13;27.42;;;25.98;;
40058;SDS011;25763;49.972;8.568;2023-07-16T05:24:39;26.55;;;25.13;;
40058;SDS011;25763;49.972;8.568;2023-07-16T05:27:04;26.38;;;24.98;;
40058;SDS011;25763;49.972;8.568;2023-07-16T05:29:30;24.67;;;23.38;;
40058;SDS011;25763;49.972;8.568;2023-07-16T05:31:55;22.80;;;21.60;;
40058;SDS011;25763;49.972;8.568;2023-07-16T05:34:20;22.85;;;21.52;;
40058;SDS011;25763;49.972;8.568;2023-07-16T05:36:46;22.55;;;21.33;;
40058;SDS011;25763;49.972;8.568;2023-07-16T05:39:11;21.17;;;19.98;;
40058;SDS011;25763;49.972;8.568;2023-07-16T05:41:40;22.23;;;21.02;;
40058;SDS011;25763;49.972;8.568;2023-07-16T05:44:06;22.27;;;21.05;;
40058;SDS011;25763;49.972;8.568;2023-07-16T05:46:32;24.42;;;23.13;;
40058;SDS011;25763;49.972;8.568;2023-07-16T05:48:58;27.25;;;25.83;;
40058;SDS011;25763;49.972;8.568;2023-07-16T05:51:23;26.55;;;25.15;;
40058;SDS011;25763;49.972;8.568;2023-07-16T05:53:48;28.55;;;27.08;;
40058;SDS011;25763;49.972;8.568;2023-07-16T05:56:14;30.80;;;29.08;;
40058;SDS011;25763;49.972;8.568;2023-07-16T05:58:42;32.53;;;30.85;;
40058;SDS011;25763;49.972;8.568;2023-07-16T06:01:08;39.30;;;37.22;;
40058;SDS011;25763;49.972;8.568;2023-07-16T06:03:33;44.33;;;41.90;;
40058;SDS011;25763;49.972;8.568;2023-07-16T06:05:58;45.47;;;43.13;;
40058;SDS011;25763;49.972;8.568;2023-07-16T06:08:24;36.00;;;34.17;;
40058;SDS011;25763;49.972;8.568;2023-07-16T06:10:50;45.78;;;43.45;;
40058;SDS011;25763;49.972;8.568;2023-07-16T06:13:16;43.97;;;41.72;;
40058;SDS011;25763;49.972;8.568;2023-07-16T06:15:41;48.65;;;46.17;;
40058;SDS011;25763;49.972;8.568;2023-07-16T06:18:07;57.60;;;54.35;;
40058;SDS011;25763;49.972;8.568;2023-07-16T06:20:32;50.15;;;47.63;;
40058;SDS011;25763;49.972;8.568;2023-07-16T06:22:58;52.63;;;49.97;;
40058;SDS011;25763;49.972;8.568;2023-07-16T06:25:23;54.30;;;51.55;;
40058;SDS011;25763;49.972;8.568;2023-07-16T06:27:48;64.13;;;60.92;;
40058;SDS011;25763;49.972;8.568;2023-07-16T06:30:14;69.05;;;65.63;;
40058;SDS011;25763;49.972;8.568;2023-07-16T06:32:39;78.28;;;74.40;;
40058;SDS011;25763;49.972;8.568;2023-07-16T06:35:05;60.10;;;56.97;;
40058;SDS011;25763;49.972;8.568;2023-07-16T06:37:30;50.08;;;47.15;;
40058;SDS011;25763;49.972;8.568;2023-07-16T06:39:56;48.72;;;46.22;;
40058;SDS011;25763;49.972;8.568;2023-07-16T06:42:21;50.95;;;48.35;;
40058;SDS011;25763;49.972;8.568;2023-07-16T06:44:46;60.92;;;57.88;;
40058;SDS011;25763;49.972;8.568;2023-07-16T06:47:12;45.05;;;42.75;;
40058;SDS011;25763;49.972;8.568;2023-07-16T06:49:37;40.20;;;38.15;;
40058;SDS011;25763;49.972;8.568;2023-07-16T06:52:02;46.75;;;44.40;;
40058;SDS011;25763;49.972;8.568;2023-07-16T06:54:28;45.08;;;42.78;;
40058;SDS011;25763;49.972;8.568;2023-07-16T06:56:53;45.33;;;42.92;;
40058;SDS011;25763;49.972;8.568;2023-07-16T06:59:19;42.17;;;39.97;;
40058;SDS011;25763;49.972;8.568;2023-07-16T07:01:44;32.38;;;30.67;;
40058;SDS011;25763;49.972;8.568;2023-07-16T07:04:09;29.52;;;27.98;;
40058;SDS011;25763;49.972;8.568;2023-07-16T07:06:35;34.42;;;32.60;;
40058;SDS011;25763;49.972;8.568;2023-07-16T07:09:00;28.95;;;27.45;;
40058;SDS011;25763;49.972;8.568;2023-07-16T07:11:25;29.15;;;27.55;;
40058;SDS011;25763;49.972;8.568;2023-07-16T07:13:51;29.50;;;27.90;;
40058;SDS011;25763;49.972;8.568;2023-07-16T07:16:17;26.35;;;24.95;;
40058;SDS011;25763;49.972;8.568;2023-07-16T07:18:43;26.90;;;25.48;;
40058;SDS011;25763;49.972;8.568;2023-07-16T07:21:08;26.02;;;24.63;;
40058;SDS011;25763;49.972;8.568;2023-07-16T07:23:33;23.33;;;22.02;;
40058;SDS011;25763;49.972;8.568;2023-07-16T07:25:59;27.73;;;26.27;;
40058;SDS011;25763;49.972;8.568;2023-07-16T07:28:25;25.30;;;23.90;;
40058;SDS011;25763;49.972;8.568;2023-07-16T07:30:50;26.10;;;24.73;;
40058;SDS011;25763;49.972;8.568;2023-07-16T07:33:15;28.98;;;27.13;;
40058;SDS011;25763;49.972;8.568;2023-07-16T07:35:41;25.50;;;24.10;;
40058;SDS011;25763;49.972;8.568;2023-07-16T07:38:06;28.38;;;26.88;;
40058;SDS011;25763;49.972;8.568;2023-07-16T07:40:31;27.92;;;26.42;;
40058;SDS011;25763;49.972;8.568;2023-07-16T07:42:57;24.52;;;23.23;;
40058;SDS011;25763;49.972;8.568;2023-07-16T07:45:23;21.27;;;19.95;;
40058;SDS011;25763;49.972;8.568;2023-07-16T07:47:49;22.83;;;21.63;;
40058;SDS011;25763;49.972;8.568;2023-07-16T07:50:14;24.33;;;23.02;;
40058;SDS011;25763;49.972;8.568;2023-07-16T07:52:40;26.40;;;25.00;;
40058;SDS011;25763;49.972;8.568;2023-07-16T07:55:05;27.50;;;25.98;;
40058;SDS011;25763;49.972;8.568;2023-07-16T07:57:31;28.00;;;26.52;;
40058;SDS011;25763;49.972;8.568;2023-07-16T07:59:56;24.88;;;23.52;;
40058;SDS011;25763;49.972;8.568;2023-07-16T08:02:23;27.95;;;26.48;;
40058;SDS011;25763;49.972;8.568;2023-07-16T08:04:50;31.45;;;29.85;;
40058;SDS011;25763;49.972;8.568;2023-07-16T08:07:16;24.50;;;23.20;;
40058;SDS011;25763;49.972;8.568;2023-07-16T08:09:42;23.00;;;21.73;;
40058;SDS011;25763;49.972;8.568;2023-07-16T08:12:08;24.85;;;23.45;;
40058;SDS011;25763;49.972;8.568;2023-07-16T08:14:33;26.80;;;25.40;;
40058;SDS011;25763;49.972;8.568;2023-07-16T08:16:59;62.35;;;59.25;;
40058;SDS011;25763;49.972;8.568;2023-07-16T08:19:24;81.75;;;77.70;;
40058;SDS011;25763;49.972;8.568;2023-07-16T08:21:49;74.95;;;71.22;;
40058;SDS011;25763;49.972;8.568;2023-07-16T08:24:14;85.28;;;81.00;;
40058;SDS011;25763;49.972;8.568;2023-07-16T08:26:40;90.68;;;86.18;;
40058;SDS011;25763;49.972;8.568;2023-07-16T08:29:05;78.65;;;74.72;;
40058;SDS011;25763;49.972;8.568;2023-07-16T08:31:31;87.63;;;83.25;;
40058;SDS011;25763;49.972;8.568;2023-07-16T08:33:56;91.35;;;86.82;;
40058;SDS011;25763;49.972;8.568;2023-07-16T08:36:21;83.63;;;79.47;;
40058;SDS011;25763;49.972;8.568;2023-07-16T08:38:47;41.78;;;39.63;;
40058;SDS011;25763;49.972;8.568;2023-07-16T08:41:12;90.25;;;85.80;;
40058;SDS011;25763;49.972;8.568;2023-07-16T08:43:39;89.35;;;84.72;;
40058;SDS011;25763;49.972;8.568;2023-07-16T08:46:05;99.32;;;94.43;;
40058;SDS011;25763;49.972;8.568;2023-07-16T08:48:30;100.15;;;95.20;;
40058;SDS011;25763;49.972;8.568;2023-07-16T08:50:57;95.63;;;90.82;;
40058;SDS011;25763;49.972;8.568;2023-07-16T08:53:24;98.95;;;93.65;;
40058;SDS011;25763;49.972;8.568;2023-07-16T08:55:49;96.07;;;91.22;;
40058;SDS011;25763;49.972;8.568;2023-07-16T08:58:15;86.63;;;82.20;;
40058;SDS011;25763;49.972;8.568;2023-07-16T09:00:43;82.47;;;78.35;;
40058;SDS011;25763;49.972;8.568;2023-07-16T09:03:10;100.10;;;95.05;;
40058;SDS011;25763;49.972;8.568;2023-07-16T09:05:38;109.40;;;104.03;;
40058;SDS011;25763;49.972;8.568;2023-07-16T09:08:03;81.60;;;77.55;;
40058;SDS011;25763;49.972;8.568;2023-07-16T09:10:29;69.57;;;65.90;;
40058;SDS011;25763;49.972;8.568;2023-07-16T09:12:57;72.00;;;68.40;;
40058;SDS011;25763;49.972;8.568;2023-07-16T09:15:23;64.28;;;61.03;;
40058;SDS011;25763;49.972;8.568;2023-07-16T09:17:48;68.53;;;65.13;;
40058;SDS011;25763;49.972;8.568;2023-07-16T09:20:15;82.97;;;78.70;;
40058;SDS011;25763;49.972;8.568;2023-07-16T09:22:42;75.93;;;72.15;;
40058;SDS011;25763;49.972;8.568;2023-07-16T09:25:08;86.25;;;81.97;;
40058;SDS011;25763;49.972;8.568;2023-07-16T09:27:33;79.53;;;75.57;;
40058;SDS011;25763;49.972;8.568;2023-07-16T09:29:59;77.65;;;73.78;;
40058;SDS011;25763;49.972;8.568;2023-07-16T09:32:36;79.47;;;75.55;;
40058;SDS011;25763;49.972;8.568;2023-07-16T09:35:14;79.95;;;75.97;;
40058;SDS011;25763;49.972;8.568;2023-07-16T09:37:41;82.28;;;78.20;;
40058;SDS011;25763;49.972;8.568;2023-07-16T09:40:08;79.43;;;75.45;;
40058;SDS011;25763;49.972;8.568;2023-07-16T09:42:36;93.47;;;88.82;;
40058;SDS011;25763;49.972;8.568;2023-07-16T09:45:03;87.95;;;83.60;;
40058;SDS011;25763;49.972;8.568;2023-07-16T09:47:30;82.60;;;78.50;;
40058;SDS011;25763;49.972;8.568;2023-07-16T09:49:55;94.53;;;89.85;;
40058;SDS011;25763;49.972;8.568;2023-07-16T09:52:20;85.28;;;81.00;;
40058;SDS011;25763;49.972;8.568;2023-07-16T09:54:46;91.68;;;87.03;;
40058;SDS011;25763;49.972;8.568;2023-07-16T09:57:12;90.18;;;85.68;;
40058;SDS011;25763;49.972;8.568;2023-07-16T09:59:39;87.53;;;83.20;;
40058;SDS011;25763;49.972;8.568;2023-07-16T10:02:06;85.47;;;81.25;;
40058;SDS011;25763;49.972;8.568;2023-07-16T10:04:39;74.75;;;71.03;;
40058;SDS011;25763;49.972;8.568;2023-07-16T10:07:05;87.68;;;83.35;;
40058;SDS011;25763;49.972;8.568;2023-07-16T10:12:11;62.83;;;59.70;;
40058;SDS011;25763;49.972;8.568;2023-07-16T10:14:42;64.25;;;61.08;;
40058;SDS011;25763;49.972;8.568;2023-07-16T10:17:12;58.22;;;55.28;;
40058;SDS011;25763;49.972;8.568;2023-07-16T10:25:08;57.97;;;55.05;;
40058;SDS011;25763;49.972;8.568;2023-07-16T10:27:36;55.03;;;52.28;;
40058;SDS011;25763;49.972;8.568;2023-07-16T10:30:03;60.28;;;57.25;;
40058;SDS011;25763;49.972;8.568;2023-07-16T10:32:30;95.40;;;90.65;;
40058;SDS011;25763;49.972;8.568;2023-07-16T10:34:57;94.47;;;89.82;;
40058;SDS011;25763;49.972;8.568;2023-07-16T10:37:23;84.07;;;79.88;;
40058;SDS011;25763;49.972;8.568;2023-07-16T10:39:50;63.13;;;59.92;;
40058;SDS011;25763;49.972;8.568;2023-07-16T10:42:20;103.80;;;98.50;;
40058;SDS011;25763;49.972;8.568;2023-07-16T10:44:49;109.35;;;103.97;;
40058;SDS011;25763;49.972;8.568;2023-07-16T10:47:24;173.90;;;165.38;;
40058;SDS011;25763;49.972;8.568;2023-07-16T10:49:50;178.07;;;169.32;;
40058;SDS011;25763;49.972;8.568;2023-07-16T10:52:20;164.70;;;156.45;;
40058;SDS011;25763;49.972;8.568;2023-07-16T10:54:46;157.82;;;150.00;;
40058;SDS011;25763;49.972;8.568;2023-07-16T10:57:12;163.00;;;154.98;;
40058;SDS011;25763;49.972;8.568;2023-07-16T10:59:38;162.30;;;154.32;;
40058;SDS011;25763;49.972;8.568;2023-07-16T11:02:08;157.80;;;150.05;;
40058;SDS011;25763;49.972;8.568;2023-07-16T11:04:35;160.23;;;152.35;;
40058;SDS011;25763;49.972;8.568;2023-07-16T11:07:10;149.38;;;142.05;;
40058;SDS011;25763;49.972;8.568;2023-07-16T11:09:44;143.18;;;135.63;;
40058;SDS011;25763;49.972;8.568;2023-07-16T11:12:15;138.23;;;131.40;;
40058;SDS011;25763;49.972;8.568;2023-07-16T11:14:43;126.95;;;120.70;;
40058;SDS011;25763;49.972;8.568;2023-07-16T11:17:10;129.68;;;123.30;;
40058;SDS011;25763;49.972;8.568;2023-07-16T11:19:36;144.88;;;137.70;;
40058;SDS011;25763;49.972;8.568;2023-07-16T11:22:03;96.75;;;91.95;;
40058;SDS011;25763;49.972;8.568;2023-07-16T11:24:39;107.75;;;102.47;;
40058;SDS011;25763;49.972;8.568;2023-07-16T11:27:06;74.55;;;70.85;;
40058;SDS011;25763;49.972;8.568;2023-07-16T11:29:38;124.13;;;118.00;;
40058;SDS011;25763;49.972;8.568;2023-07-16T11:32:04;120.82;;;114.88;;
40058;SDS011;25763;49.972;8.568;2023-07-16T11:34:30;144.27;;;136.77;;
40058;SDS011;25763;49.972;8.568;2023-07-16T11:37:06;148.10;;;140.77;;
40058;SDS011;25763;49.972;8.568;2023-07-16T11:39:34;165.20;;;157.07;;
40058;SDS011;25763;49.972;8.568;2023-07-16T11:41:59;164.23;;;156.10;;
40058;SDS011;25763;49.972;8.568;2023-07-16T11:44:31;149.73;;;142.32;;
40058;SDS011;25763;49.972;8.568;2023-07-16T11:46:58;145.25;;;137.80;;
40058;SDS011;25763;49.972;8.568;2023-07-16T11:49:24;146.95;;;139.43;;
40058;SDS011;25763;49.972;8.568;2023-07-16T11:51:50;148.75;;;141.40;;
40058;SDS011;25763;49.972;8.568;2023-07-16T11:54:15;152.57;;;145.02;;
40058;SDS011;25763;49.972;8.568;2023-07-16T11:56:40;145.27;;;138.15;;
40058;SDS011;25763;49.972;8.568;2023-07-16T11:59:06;147.35;;;139.95;;
40058;SDS011;25763;49.972;8.568;2023-07-16T12:01:31;152.85;;;145.30;;
40058;SDS011;25763;49.972;8.568;2023-07-16T12:03:57;105.93;;;100.72;;
40058;SDS011;25763;49.972;8.568;2023-07-16T12:06:22;85.32;;;81.10;;
40058;SDS011;25763;49.972;8.568;2023-07-16T12:08:47;87.13;;;82.78;;
40058;SDS011;25763;49.972;8.568;2023-07-16T12:11:13;70.95;;;67.40;;
40058;SDS011;25763;49.972;8.568;2023-07-16T12:13:38;68.15;;;64.78;;
40058;SDS011;25763;49.972;8.568;2023-07-16T12:16:03;69.28;;;65.80;;
40058;SDS011;25763;49.972;8.568;2023-07-16T12:18:29;71.10;;;67.55;;
40058;SDS011;25763;49.972;8.568;2023-07-16T12:20:55;75.63;;;71.90;;
40058;SDS011;25763;49.972;8.568;2023-07-16T12:23:21;71.97;;;68.07;;
40058;SDS011;25763;49.972;8.568;2023-07-16T12:25:47;67.25;;;63.92;;
40058;SDS011;25763;49.972;8.568;2023-07-16T12:28:13;70.85;;;67.30;;
40058;SDS011;25763;49.972;8.568;2023-07-16T12:30:38;69.18;;;65.70;;
40058;SDS011;25763;49.972;8.568;2023-07-16T12:33:03;44.33;;;42.03;;
40058;SDS011;25763;49.972;8.568;2023-07-16T12:35:29;43.67;;;41.47;;
40058;SDS011;25763;49.972;8.568;2023-07-16T12:37:54;62.72;;;59.58;;
40058;SDS011;25763;49.972;8.568;2023-07-16T12:40:20;56.00;;;53.20;;
40058;SDS011;25763;49.972;8.568;2023-07-16T12:42:45;36.83;;;34.92;;
40058;SDS011;25763;49.972;8.568;2023-07-16T12:45:10;38.03;;;36.10;;
40058;SDS011;25763;49.972;8.568;2023-07-16T12:47:36;39.92;;;37.75;;
40058;SDS011;25763;49.972;8.568;2023-07-16T12:50:03;38.03;;;36.08;;
40058;SDS011;25763;49.972;8.568;2023-07-16T12:52:29;34.65;;;32.85;;
40058;SDS011;25763;49.972;8.568;2023-07-16T12:54:54;31.17;;;29.48;;
40058;SDS011;25763;49.972;8.568;2023-07-16T12:57:20;28.33;;;26.83;;
40058;SDS011;25763;49.972;8.568;2023-07-16T12:59:45;25.17;;;23.85;;
40058;SDS011;25763;49.972;8.568;2023-07-16T13:02:10;24.08;;;22.77;;
40058;SDS011;25763;49.972;8.568;2023-07-16T13:04:36;27.17;;;25.73;;
40058;SDS011;25763;49.972;8.568;2023-07-16T13:07:01;27.63;;;26.15;;
40058;SDS011;25763;49.972;8.568;2023-07-16T13:09:27;26.85;;;25.45;;
40058;SDS011;25763;49.972;8.568;2023-07-16T13:11:52;26.52;;;25.13;;
40058;SDS011;25763;49.972;8.568;2023-07-16T13:14:17;33.35;;;31.60;;
40058;SDS011;25763;49.972;8.568;2023-07-16T13:16:43;34.47;;;32.67;;
40058;SDS011;25763;49.972;8.568;2023-07-16T13:19:08;39.33;;;37.30;;
40058;SDS011;25763;49.972;8.568;2023-07-16T13:21:33;44.70;;;42.38;;
40058;SDS011;25763;49.972;8.568;2023-07-16T13:23:59;32.72;;;30.92;;
40058;SDS011;25763;49.972;8.568;2023-07-16T13:26:24;37.63;;;35.60;;
40058;SDS011;25763;49.972;8.568;2023-07-16T13:28:49;41.28;;;39.00;;
40058;SDS011;25763;49.972;8.568;2023-07-16T13:31:15;35.47;;;33.63;;
40058;SDS011;25763;49.972;8.568;2023-07-16T13:33:40;30.35;;;28.75;;
40058;SDS011;25763;49.972;8.568;2023-07-16T13:36:06;33.67;;;31.95;;
40058;SDS011;25763;49.972;8.568;2023-07-16T13:38:31;25.55;;;23.95;;
40058;SDS011;25763;49.972;8.568;2023-07-16T13:40:56;27.60;;;26.00;;
40058;SDS011;25763;49.972;8.568;2023-07-16T13:43:22;24.95;;;23.63;;
40058;SDS011;25763;49.972;8.568;2023-07-16T13:45:47;21.02;;;19.67;;
40058;SDS011;25763;49.972;8.568;2023-07-16T13:48:13;23.92;;;22.63;;
40058;SDS011;25763;49.972;8.568;2023-07-16T13:50:38;25.98;;;24.58;;
40058;SDS011;25763;49.972;8.568;2023-07-16T13:53:03;22.05;;;20.85;;
40058;SDS011;25763;49.972;8.568;2023-07-16T13:55:29;22.05;;;20.77;;
40058;SDS011;25763;49.972;8.568;2023-07-16T13:57:54;24.67;;;23.30;;
40058;SDS011;25763;49.972;8.568;2023-07-16T14:00:20;23.63;;;22.33;;
40058;SDS011;25763;49.972;8.568;2023-07-16T14:02:46;19.45;;;18.35;;
40058;SDS011;25763;49.972;8.568;2023-07-16T14:05:12;20.20;;;19.10;;
40058;SDS011;25763;49.972;8.568;2023-07-16T14:07:37;18.25;;;17.25;;
40058;SDS011;25763;49.972;8.568;2023-07-16T14:10:03;17.27;;;16.27;;
40058;SDS011;25763;49.972;8.568;2023-07-16T14:12:28;15.95;;;15.05;;
40058;SDS011;25763;49.972;8.568;2023-07-16T14:14:54;20.73;;;19.45;;
40058;SDS011;25763;49.972;8.568;2023-07-16T14:17:19;15.52;;;14.60;;
40058;SDS011;25763;49.972;8.568;2023-07-16T14:19:45;17.35;;;16.25;;
40058;SDS011;25763;49.972;8.568;2023-07-16T14:22:10;17.48;;;16.48;;
40058;SDS011;25763;49.972;8.568;2023-07-16T14:24:38;19.75;;;18.60;;
40058;SDS011;25763;49.972;8.568;2023-07-16T14:27:05;18.10;;;17.08;;
40058;SDS011;25763;49.972;8.568;2023-07-16T14:29:31;22.38;;;21.13;;
40058;SDS011;25763;49.972;8.568;2023-07-16T14:31:58;22.17;;;20.92;;